Schedule Details


Flight Number: CTN531
Departure: Pulkovo (ULLI) at 18:50
Arrival: Franjo Tudman (LDZA) at 20:45
Route: TURAL?B141?RANVA?P863?RESMO?M155?VALGA?M985?BOKSU?M857?SUW?M985?EVINA?N744?TUSIN?M984?MIKOV?DCT?WGM?DCT?PETOV

Weather Information
ULLI 200900Z 28007MPS 9999 BKN006 OVC015 01/00 Q1018 R28R/290050 NOSIG RMK OBST OBSC
LDZA 200900Z 05015KT 020V080 CAVOK 08/M03 Q1032 NOSIG
Schedule Frequency

Route Map